Time;durP1;ratioP1;P1;durP2;ratioP2;P2;SDS_P1;SDS_P2;PMS_P1;PMS_P2;Temp;Humidity;BMP_temperature;BMP_pressure;BME280_temperature;BME280_humidity;BME280_pressure;Samples;Min_cycle;Max_cycle;Signal;HPM_P1;HPM_P2
2024/04/08 00:00:41;;;;;;;10.20;9.27;;;;;;;16.95;59.72;145945.78;5131558;27;20257;-51
2024/04/08 00:03:07;;;;;;;10.70;9.10;;;;;;;17.05;61.92;145970.09;5131448;27;20441;-51
2024/04/08 00:05:33;;;;;;;10.43;9.33;;;;;;;16.96;60.19;145948.22;5131522;27;20253;-51
2024/04/08 00:07:58;;;;;;;10.57;9.47;;;;;;;16.90;60.83;145932.41;5131395;27;20205;-52
2024/04/08 00:10:25;;;;;;;11.07;9.97;;;;;;;16.84;61.54;145917.78;5131053;27;20628;-52
2024/04/08 00:12:52;;;;;;;13.90;9.47;;;;;;;16.78;61.09;145904.41;5131230;27;20618;-51
2024/04/08 00:15:18;;;;;;;10.50;9.43;;;;;;;16.74;61.97;145893.50;5131058;27;20236;-52
2024/04/08 00:17:44;;;;;;;10.80;9.80;;;;;;;16.70;61.70;145883.75;5131255;27;20196;-52
2024/04/08 00:20:12;;;;;;;9.73;9.10;;;;;;;16.62;62.18;145865.50;5130956;27;20316;-52
2024/04/08 00:22:37;;;;;;;10.10;9.10;;;;;;;16.55;62.18;145849.75;5131153;27;20196;-52
2024/04/08 00:25:04;;;;;;;14.43;10.30;;;;;;;16.51;62.82;145839.94;5130900;27;20207;-51
2024/04/08 00:27:30;;;;;;;11.53;9.97;;;;;;;16.48;62.57;145831.41;5131090;27;20315;-52
2024/04/08 00:29:58;;;;;;;10.37;9.33;;;;;;;16.47;62.96;145830.25;5130802;27;20721;-52
2024/04/08 00:32:23;;;;;;;10.80;9.70;;;;;;;16.46;64.02;145827.78;5130738;27;20747;-52
2024/04/08 00:34:49;;;;;;;12.10;10.30;;;;;;;16.42;63.68;145818.03;5130685;27;20234;-51
2024/04/08 00:37:15;;;;;;;11.17;9.73;;;;;;;16.39;64.31;145809.56;5130828;27;20205;-51
2024/04/08 00:39:41;;;;;;;14.17;9.97;;;;;;;16.38;64.84;145808.34;5130750;27;20625;-52
2024/04/08 00:42:06;;;;;;;11.20;10.03;;;;;;;16.35;64.21;145801.03;5130652;27;20204;-53
2024/04/08 00:44:33;;;;;;;13.40;10.00;;;;;;;16.35;64.18;145801.03;5130734;27;20265;-52
2024/04/08 00:47:00;;;;;;;10.87;9.60;;;;;;;16.37;65.15;145805.91;5130326;27;20211;-52
2024/04/08 00:49:28;;;;;;;10.67;9.67;;;;;;;16.36;65.29;145802.28;5130473;27;20200;-51
2024/04/08 00:51:55;;;;;;;12.13;9.80;;;;;;;16.33;65.72;145794.97;5130660;27;20257;-52
2024/04/08 00:54:22;;;;;;;13.17;9.73;;;;;;;16.30;64.89;145788.91;5130520;27;20449;-53
2024/04/08 00:56:48;;;;;;;10.40;9.40;;;;;;;16.34;64.32;145797.38;5130690;27;20196;-51
2024/04/08 00:59:15;;;;;;;10.40;9.37;;;;;;;16.29;64.13;145786.44;5130333;27;20221;-52
2024/04/08 01:01:41;;;;;;;10.50;9.60;;;;;;;16.25;63.66;145775.53;5130408;27;20233;-52
2024/04/08 01:04:10;;;;;;;10.10;9.30;;;;;;;16.26;63.69;145777.94;5130471;27;20434;-51
2024/04/08 01:06:35;;;;;;;10.43;9.33;;;;;;;16.29;64.42;145785.22;5130412;27;20201;-53
2024/04/08 01:09:02;;;;;;;11.00;9.40;;;;;;;16.28;64.51;145784.06;5130194;27;20227;-52
2024/04/08 01:11:28;;;;;;;10.60;9.60;;;;;;;16.30;61.56;145788.91;5130442;27;20572;-51
2024/04/08 01:13:54;;;;;;;10.10;9.17;;;;;;;16.30;62.61;145787.69;5130085;27;20229;-52
2024/04/08 01:16:20;;;;;;;11.57;9.40;;;;;;;16.34;65.43;145797.38;5130265;27;20211;-52
2024/04/08 01:18:46;;;;;;;10.43;9.40;;;;;;;16.33;65.05;145794.97;5130163;27;20597;-52
2024/04/08 01:21:13;;;;;;;13.27;9.23;;;;;;;16.29;65.58;145786.44;5130111;27;20200;-52
2024/04/08 01:23:42;;;;;;;10.60;9.50;;;;;;;16.22;66.21;145769.44;5130064;27;20200;-52
2024/04/08 01:26:08;;;;;;;10.77;9.50;;;;;;;16.19;65.93;145762.16;5129948;27;20231;-52
2024/04/08 01:28:35;;;;;;;11.07;10.03;;;;;;;16.17;65.53;145756.09;5130046;27;20667;-52
2024/04/08 01:31:00;;;;;;;10.03;8.93;;;;;;;16.14;66.17;145748.78;5130018;27;20647;-51
2024/04/08 01:33:27;;;;;;;10.77;9.17;;;;;;;16.12;66.71;145745.13;5130058;27;20200;-51
2024/04/08 01:35:53;;;;;;;11.37;9.40;;;;;;;16.08;66.29;145735.41;5129786;27;20204;-52
2024/04/08 01:38:19;;;;;;;11.57;9.47;;;;;;;16.10;66.89;145739.03;5129878;27;20200;-52
2024/04/08 01:40:46;;;;;;;12.23;9.30;;;;;;;16.10;67.39;145740.25;5130142;27;20220;-52
2024/04/08 01:43:13;;;;;;;10.93;9.30;;;;;;;16.14;66.83;145748.78;5129707;27;20261;-51
2024/04/08 01:45:38;;;;;;;12.87;10.07;;;;;;;16.13;65.86;145746.34;5129722;27;20617;-51
2024/04/08 01:48:05;;;;;;;10.70;9.60;;;;;;;16.12;65.83;145743.94;5129543;27;20193;-52
2024/04/08 01:50:31;;;;;;;10.80;9.70;;;;;;;16.10;66.59;145739.03;5129926;27;20204;-52
2024/04/08 01:52:58;;;;;;;10.70;9.60;;;;;;;16.07;67.32;145732.97;5129937;27;20208;-52
2024/04/08 01:55:23;;;;;;;13.73;9.70;;;;;;;16.07;67.40;145732.97;5129708;27;20668;-52
2024/04/08 01:57:52;;;;;;;11.23;9.77;;;;;;;16.08;66.44;145735.41;5129832;27;20201;-51
2024/04/08 02:00:18;;;;;;;9.40;8.60;;;;;;;16.06;67.04;145729.34;5132126;27;20220;-53
2024/04/08 02:02:44;;;;;;;11.10;9.70;;;;;;;15.98;66.74;145711.13;5134035;27;20204;-52
2024/04/08 02:05:09;;;;;;;11.70;9.77;;;;;;;15.91;67.44;145695.31;5133766;27;20208;-52
2024/04/08 02:07:36;;;;;;;10.80;9.70;;;;;;;15.88;68.25;145686.78;5133833;27;20574;-53
2024/04/08 02:10:01;;;;;;;10.57;9.57;;;;;;;15.87;66.87;145685.56;5133640;27;20269;-52
2024/04/08 02:12:28;;;;;;;10.13;9.23;;;;;;;15.85;66.86;145679.50;5133884;27;20200;-51
2024/04/08 02:14:54;;;;;;;11.77;10.47;;;;;;;15.85;66.85;145680.72;5133600;27;20228;-51
2024/04/08 02:17:21;;;;;;;10.10;9.10;;;;;;;15.81;67.23;145671.03;5133690;27;20196;-53
2024/04/08 02:19:46;;;;;;;9.50;8.60;;;;;;;15.78;67.55;145663.72;5133643;27;20220;-52
2024/04/08 02:22:12;;;;;;;12.07;9.23;;;;;;;15.77;67.38;145661.28;5133558;27;20193;-51
2024/04/08 02:24:38;;;;;;;13.30;9.30;;;;;;;15.73;68.24;145651.59;5133658;27;20247;-51
2024/04/08 02:27:05;;;;;;;10.97;9.50;;;;;;;15.74;68.29;145652.75;5133370;27;20204;-51
2024/04/08 02:29:32;;;;;;;13.17;9.53;;;;;;;15.76;69.25;145657.66;5133637;27;20201;-52
2024/04/08 02:31:59;;;;;;;10.53;9.57;;;;;;;15.74;68.27;145652.75;5133461;27;20366;-51
2024/04/08 02:34:25;;;;;;;9.57;8.60;;;;;;;15.75;66.77;145656.44;5133194;27;20204;-51
2024/04/08 02:36:51;;;;;;;11.53;9.73;;;;;;;15.75;66.76;145656.44;5133365;27;20943;-53
2024/04/08 02:39:16;;;;;;;11.50;9.80;;;;;;;15.70;67.07;145643.06;5133508;27;20648;-51
2024/04/08 02:41:43;;;;;;;10.83;9.10;;;;;;;15.60;67.74;145619.97;5133142;27;20200;-51
2024/04/08 02:44:08;;;;;;;13.90;8.67;;;;;;;15.61;68.33;145621.19;5133153;27;20741;-53
2024/04/08 02:46:35;;;;;;;11.90;8.70;;;;;;;15.54;69.10;145604.19;5133148;27;20200;-51
2024/04/08 02:49:01;;;;;;;10.57;8.73;;;;;;;15.46;69.31;145585.97;5133314;27;20881;-53
2024/04/08 02:51:28;;;;;;;10.63;9.27;;;;;;;15.31;70.96;145549.47;5133109;27;20598;-52
2024/04/08 02:53:53;;;;;;;10.73;9.67;;;;;;;15.17;70.90;145515.47;5133157;27;20277;-51
2024/04/08 02:56:20;;;;;;;11.10;10.00;;;;;;;15.14;70.98;145508.16;5132897;27;20660;-51
2024/04/08 02:58:45;;;;;;;10.73;9.73;;;;;;;15.11;71.41;145502.09;5132759;27;20197;-52
2024/04/08 03:01:12;;;;;;;12.37;9.30;;;;;;;15.00;71.46;145475.38;5132672;27;20272;-52
2024/04/08 03:03:38;;;;;;;12.83;9.53;;;;;;;14.99;71.85;145471.75;5132826;27;20713;-52
2024/04/08 03:06:09;;;;;;;12.77;9.43;;;;;;;14.91;72.48;145453.53;5132354;27;20201;-51
2024/04/08 03:08:35;;;;;;;10.57;9.40;;;;;;;14.88;72.32;145446.25;5132665;27;20619;-52
2024/04/08 03:11:02;;;;;;;11.40;9.80;;;;;;;14.80;72.56;145426.84;5132440;27;20742;-51
2024/04/08 03:13:27;;;;;;;10.77;9.50;;;;;;;14.74;72.53;145413.47;5132393;27;20211;-52
2024/04/08 03:15:54;;;;;;;12.77;9.37;;;;;;;14.69;72.12;145401.34;5132656;27;20200;-52
2024/04/08 03:18:20;;;;;;;10.37;9.33;;;;;;;14.59;73.14;145377.03;5132416;27;20234;-52
2024/04/08 03:22:30;;;;;;;10.27;8.97;;;;;;;14.46;74.28;145345.47;5464686;26;21022;-52
2024/04/08 03:24:55;;;;;;;10.80;9.70;;;;;;;14.38;75.23;145324.84;5465194;26;20215;-52
2024/04/08 03:27:23;;;;;;;10.87;9.77;;;;;;;14.37;74.78;145323.63;5465133;26;20244;-52
2024/04/08 03:29:50;;;;;;;10.77;9.83;;;;;;;14.31;74.87;145309.03;5465133;26;20214;-51
2024/04/08 03:32:18;;;;;;;11.03;9.67;;;;;;;14.22;75.35;145287.19;5465465;26;20258;-52
2024/04/08 03:34:43;;;;;;;11.70;10.20;;;;;;;14.19;75.73;145281.13;5465212;26;20249;-51
2024/04/08 03:37:11;;;;;;;16.47;10.30;;;;;;;14.14;75.88;145269.00;5465042;26;20583;-52
2024/04/08 03:39:42;;;;;;;10.90;9.97;;;;;;;14.13;75.76;145265.31;5465183;26;20404;-51
2024/04/08 03:42:10;;;;;;;15.37;9.90;;;;;;;14.12;75.85;145262.94;5465098;26;20673;-52
2024/04/08 03:44:39;;;;;;;12.17;9.47;;;;;;;14.06;75.81;145248.34;5465540;26;20299;-52
2024/04/08 03:47:07;;;;;;;11.27;10.27;;;;;;;13.99;75.79;145231.38;5465398;26;20881;-52
2024/04/08 03:49:35;;;;;;;11.93;8.97;;;;;;;14.02;75.93;145239.84;5465254;26;20241;-52
2024/04/08 03:52:01;;;;;;;14.73;10.30;;;;;;;13.99;76.39;145232.56;5465003;26;20682;-51
2024/04/08 03:54:29;;;;;;;10.43;9.57;;;;;;;13.90;77.13;145209.53;5464959;26;20227;-51
2024/04/08 03:56:57;;;;;;;11.20;9.77;;;;;;;13.91;76.98;145213.16;5464892;26;20233;-52
2024/04/08 03:59:25;;;;;;;10.37;9.50;;;;;;;13.83;77.10;145192.53;5464789;26;20284;-51
2024/04/08 04:01:50;;;;;;;11.50;9.50;;;;;;;13.81;77.18;145188.91;5464671;26;20483;-52
2024/04/08 04:04:18;;;;;;;12.07;9.93;;;;;;;13.77;77.38;145178.00;5464895;26;20599;-51
2024/04/08 04:06:44;;;;;;;11.13;10.03;;;;;;;13.66;78.64;145152.47;5464909;26;20215;-52
2024/04/08 04:09:12;;;;;;;10.40;9.40;;;;;;;13.59;78.82;145135.53;5464700;26;20620;-52
2024/04/08 04:11:38;;;;;;;10.73;9.67;;;;;;;13.59;78.74;145136.75;5465038;26;20692;-52
2024/04/08 04:14:08;;;;;;;10.17;9.30;;;;;;;13.56;78.15;145129.47;5464480;26;20250;-52
2024/04/08 04:16:35;;;;;;;10.53;9.43;;;;;;;13.55;78.76;145125.84;5465031;26;20227;-52
2024/04/08 04:19:03;;;;;;;10.77;9.77;;;;;;;13.54;78.44;145124.63;5464655;26;20254;-52
2024/04/08 04:21:28;;;;;;;14.23;10.20;;;;;;;13.66;76.84;145152.47;5464501;26;20227;-51
2024/04/08 04:23:56;;;;;;;12.33;10.47;;;;;;;13.69;77.01;145159.78;5465011;26;20283;-51
2024/04/08 04:26:22;;;;;;;10.63;9.73;;;;;;;13.67;77.79;145154.94;5464294;26;20659;-52
2024/04/08 04:28:50;;;;;;;12.43;10.57;;;;;;;13.57;77.27;145130.69;5464616;26;20227;-52
2024/04/08 04:31:17;;;;;;;14.63;10.53;;;;;;;13.54;78.40;145124.63;5464705;26;20216;-53
2024/04/08 04:33:46;;;;;;;11.30;10.20;;;;;;;13.51;78.49;145116.13;5448036;26;20219;-52
2024/04/08 04:36:11;;;;;;;10.93;9.90;;;;;;;13.47;78.14;145106.44;5449136;26;20212;-52
2024/04/08 04:38:39;;;;;;;11.40;10.20;;;;;;;13.45;78.89;145102.78;5448988;26;20246;-51
2024/04/08 04:41:06;;;;;;;12.20;10.90;;;;;;;13.43;79.26;145097.94;5448534;26;20212;-51
2024/04/08 04:43:34;;;;;;;11.90;10.80;;;;;;;13.41;79.40;145093.09;5449048;26;20220;-51
2024/04/08 04:46:00;;;;;;;11.73;9.90;;;;;;;13.35;79.12;145078.53;5448861;26;20254;-52
2024/04/08 04:48:30;;;;;;;13.97;10.77;;;;;;;13.32;79.21;145070.03;5448816;26;20220;-50
2024/04/08 04:50:56;;;;;;;11.37;10.17;;;;;;;13.35;78.96;145077.31;5448710;26;20538;-52
2024/04/08 04:53:24;;;;;;;11.17;10.10;;;;;;;13.33;79.14;145072.47;5448829;26;20254;-52
2024/04/08 04:55:51;;;;;;;12.23;10.90;;;;;;;13.21;79.52;145044.56;5448686;26;20216;-51
2024/04/08 04:58:19;;;;;;;12.00;10.40;;;;;;;13.37;79.48;145083.38;5448676;26;20304;-51
2024/04/08 05:00:46;;;;;;;11.53;10.47;;;;;;;13.36;79.64;145079.75;5448470;26;20223;-51
2024/04/08 05:03:14;;;;;;;13.70;10.40;;;;;;;13.40;80.21;145090.66;5448389;26;20320;-52
2024/04/08 05:05:42;;;;;;;14.10;10.30;;;;;;;13.49;78.26;145112.50;5448609;26;20554;-51
2024/04/08 05:08:10;;;;;;;14.80;10.33;;;;;;;13.55;78.52;145127.00;5448457;26;20216;-52
2024/04/08 05:10:36;;;;;;;11.60;10.10;;;;;;;13.66;78.60;145153.72;5448293;26;20227;-52
2024/04/08 05:13:04;;;;;;;15.80;10.60;;;;;;;13.71;78.43;145163.44;5448311;26;20255;-51
2024/04/08 05:15:29;;;;;;;11.97;10.77;;;;;;;13.69;78.47;145158.59;5448583;26;20322;-51
2024/04/08 05:17:57;;;;;;;10.70;9.67;;;;;;;13.63;77.66;145145.25;5448224;26;20228;-52
2024/04/08 05:20:25;;;;;;;11.63;10.50;;;;;;;13.78;77.65;145180.41;5447885;26;20228;-51
2024/04/08 05:22:56;;;;;;;12.73;10.87;;;;;;;13.80;77.89;145186.47;5448236;26;20307;-52
2024/04/08 05:25:21;;;;;;;16.50;11.07;;;;;;;13.81;78.07;145188.91;5448440;26;20262;-52
2024/04/08 05:27:49;;;;;;;12.73;11.50;;;;;;;13.89;77.54;145207.09;5448551;26;20263;-52
2024/04/08 05:30:15;;;;;;;11.47;10.47;;;;;;;14.01;76.39;145237.44;5448324;26;20599;-52
2024/04/08 05:32:43;;;;;;;12.47;10.83;;;;;;;14.11;76.12;145260.47;5448128;26;20291;-53
2024/04/08 05:35:08;;;;;;;11.80;10.47;;;;;;;14.20;76.22;145282.34;5448097;26;20220;-52
2024/04/08 05:37:38;;;;;;;11.83;10.83;;;;;;;14.31;75.80;145307.81;5448001;26;20245;-52
2024/04/08 05:40:11;;;;;;;10.37;9.50;;;;;;;14.45;75.42;145343.09;5447868;26;20250;-51
2024/04/08 05:42:39;;;;;;;13.10;11.07;;;;;;;14.58;75.17;145374.63;5447935;26;20352;-52
2024/04/08 05:45:05;;;;;;;11.40;10.37;;;;;;;14.72;74.46;145408.63;5447975;26;20259;-52
2024/04/08 05:47:33;;;;;;;11.57;10.37;;;;;;;14.95;73.50;145462.00;5448124;26;20219;-51
2024/04/08 05:49:59;;;;;;;15.20;8.90;;;;;;;15.08;73.33;145493.63;5447926;26;20571;-50
2024/04/08 05:52:27;;;;;;;11.80;10.57;;;;;;;15.27;72.38;145539.78;5447847;26;20299;-51
2024/04/08 05:54:52;;;;;;;11.40;10.37;;;;;;;15.48;71.61;145590.81;5447416;26;20731;-47
2024/04/08 05:57:23;;;;;;;12.07;10.13;;;;;;;15.69;71.28;145641.84;5447685;26;20219;-47
2024/04/08 05:59:48;;;;;;;15.37;10.93;;;;;;;15.93;70.55;145700.16;5447770;26;20219;-46
2024/04/08 06:02:16;;;;;;;12.30;10.07;;;;;;;16.19;71.09;145762.16;5447864;26;20266;-47
2024/04/08 06:04:42;;;;;;;15.57;11.10;;;;;;;16.33;69.91;145796.19;5447837;26;20215;-47
2024/04/08 06:07:10;;;;;;;13.60;10.60;;;;;;;16.49;69.52;145833.88;5447649;26;20372;-48
2024/04/08 06:09:35;;;;;;;12.37;10.97;;;;;;;16.74;68.91;145893.50;5447681;26;20270;-48
2024/04/08 06:12:04;;;;;;;18.07;11.07;;;;;;;16.99;67.19;145955.47;5447852;26;20235;-49
2024/04/08 06:14:32;;;;;;;14.40;11.63;;;;;;;17.22;66.27;146009.00;5447668;26;20715;-47
2024/04/08 06:17:00;;;;;;;11.33;10.20;;;;;;;17.42;66.25;146058.91;5447338;26;20707;-48
2024/04/08 06:19:25;;;;;;;11.13;9.97;;;;;;;17.58;65.19;146096.66;5447552;26;20227;-48
2024/04/08 06:21:53;;;;;;;12.30;11.00;;;;;;;17.82;64.42;146153.81;5447320;26;20298;-47
2024/04/08 06:24:20;;;;;;;12.73;11.43;;;;;;;18.13;64.53;146230.53;5447370;26;20253;-47
2024/04/08 06:26:48;;;;;;;14.70;10.80;;;;;;;18.44;63.53;146303.56;5447333;26;20738;-48
2024/04/08 06:29:13;;;;;;;11.97;10.87;;;;;;;18.75;62.47;146380.31;5447477;26;20550;-48
2024/04/08 06:31:44;;;;;;;15.20;10.87;;;;;;;19.00;62.11;146439.97;5447501;26;20227;-48
2024/04/08 06:34:09;;;;;;;12.45;11.27;;;;;;;19.40;61.64;146537.47;5448303;26;20224;-49
2024/04/08 06:36:37;;;;;;;12.20;11.13;;;;;;;19.94;58.92;146666.66;5448618;26;20228;-48
2024/04/08 06:39:03;;;;;;;13.20;11.75;;;;;;;20.71;56.90;146853.19;5449651;26;20263;-49
2024/04/08 06:41:34;;;;;;;12.57;11.45;;;;;;;21.41;54.45;147022.81;5449996;26;20220;-49
2024/04/08 06:43:59;;;;;;;12.98;11.65;;;;;;;22.14;53.80;147198.56;5448189;26;20602;-48
2024/04/08 06:46:27;;;;;;;12.30;11.30;;;;;;;22.70;51.65;147335.38;5447047;26;20219;-48
2024/04/08 06:48:55;;;;;;;12.73;11.63;;;;;;;23.04;50.25;147417.16;5447048;26;20208;-48
2024/04/08 06:51:23;;;;;;;14.13;11.85;;;;;;;23.16;49.75;147445.28;5446801;26;20551;-48
2024/04/08 06:53:49;;;;;;;12.18;11.07;;;;;;;23.51;48.48;147532.06;5446913;26;20246;-48
2024/04/08 06:56:17;;;;;;;13.23;11.88;;;;;;;23.89;47.48;147623.69;5446396;26;20219;-48
2024/04/08 06:58:42;;;;;;;14.00;12.60;;;;;;;24.21;46.55;147700.72;5446945;26;20216;-48
2024/04/08 07:01:10;;;;;;;12.95;11.90;;;;;;;24.12;43.40;147678.75;5446837;26;20610;-48
2024/04/08 07:03:36;;;;;;;13.98;12.27;;;;;;;24.28;42.23;147716.63;5446886;26;20250;-48
2024/04/08 07:06:10;;;;;;;14.10;11.07;;;;;;;24.54;40.93;147780.19;5446858;26;20228;-48
2024/04/08 07:08:36;;;;;;;12.90;11.50;;;;;;;24.91;41.15;147870.75;5446560;26;20797;-48
2024/04/08 07:11:04;;;;;;;13.15;11.82;;;;;;;25.42;40.69;147993.03;5446583;26;20227;-48
2024/04/08 07:13:29;;;;;;;12.95;11.82;;;;;;;25.94;41.12;148120.34;5446723;26;20699;-48
2024/04/08 07:15:58;;;;;;;12.95;11.73;;;;;;;26.12;38.70;148164.38;5446456;26;20251;-47
2024/04/08 07:18:24;;;;;;;13.40;12.02;;;;;;;26.59;37.26;148277.03;5446473;26;20254;-47
2024/04/08 07:20:52;;;;;;;12.98;11.70;;;;;;;27.04;35.83;148388.56;5446201;26;20231;-48
2024/04/08 07:23:20;;;;;;;13.93;12.70;;;;;;;27.36;36.80;148464.47;5446453;26;20654;-48
2024/04/08 07:25:49;;;;;;;13.18;11.98;;;;;;;27.73;37.09;148555.19;5446327;26;20259;-48
2024/04/08 07:28:14;;;;;;;14.18;12.70;;;;;;;28.07;36.18;148638.53;5446182;26;21071;-47
2024/04/08 07:30:42;;;;;;;15.02;12.50;;;;;;;28.25;36.58;148680.22;5446710;26;20219;-48
2024/04/08 07:33:08;;;;;;;14.48;12.32;;;;;;;28.32;36.10;148697.34;5443101;26;20668;-48
2024/04/08 07:35:36;;;;;;;15.30;12.80;;;;;;;28.28;35.52;148688.75;5446003;26;20228;-48
2024/04/08 07:38:02;;;;;;;13.43;12.32;;;;;;;28.31;35.10;148696.13;5446226;26;20551;-48
2024/04/08 07:40:33;;;;;;;13.57;12.48;;;;;;;28.25;35.14;148681.44;5446165;26;20220;-48
2024/04/08 07:42:58;;;;;;;14.32;12.88;;;;;;;28.06;35.12;148634.88;5446242;26;20211;-48
2024/04/08 07:45:26;;;;;;;14.38;12.90;;;;;;;27.88;35.28;148590.69;5445911;26;20219;-49
2024/04/08 07:47:52;;;;;;;12.95;11.85;;;;;;;27.56;35.59;148513.53;5445923;26;20216;-48
2024/04/08 07:50:20;;;;;;;13.15;12.10;;;;;;;27.62;36.49;148529.41;5446346;26;20262;-48
2024/04/08 07:52:46;;;;;;;14.63;13.00;;;;;;;27.83;35.55;148578.44;5446080;26;20220;-48
2024/04/08 07:55:14;;;;;;;14.15;12.75;;;;;;;28.49;35.11;148739.03;5446075;26;20255;-48
2024/04/08 07:57:42;;;;;;;14.18;12.98;;;;;;;29.10;34.00;148887.44;5446079;26;20215;-48
2024/04/08 08:00:12;;;;;;;14.57;13.18;;;;;;;29.26;33.51;148927.91;5445766;26;20220;-48
2024/04/08 08:02:38;;;;;;;14.65;13.10;;;;;;;29.89;32.10;149081.28;5445835;26;20318;-48
2024/04/08 08:05:06;;;;;;;13.98;12.75;;;;;;;30.74;31.94;149286.28;5445651;26;20227;-48
2024/04/08 08:07:32;;;;;;;14.70;13.23;;;;;;;31.82;30.15;149550.34;5446905;26;20211;-49
2024/04/08 08:10:00;;;;;;;14.70;13.32;;;;;;;32.79;28.93;149787.53;5449398;26;20232;-48
2024/04/08 08:12:28;;;;;;;15.73;13.50;;;;;;;33.76;28.11;150023.66;5449212;26;20707;-48
2024/04/08 08:14:58;;;;;;;14.32;12.95;;;;;;;34.48;26.57;150198.38;5449427;26;20258;-48
2024/04/08 08:17:27;;;;;;;15.27;13.77;;;;;;;35.29;26.10;150395.28;5449139;26;20340;-47
2024/04/08 08:19:55;;;;;;;15.73;14.23;;;;;;;35.71;25.23;150498.75;5449107;26;20224;-50
2024/04/08 08:22:24;;;;;;;15.65;13.13;;;;;;;36.42;24.31;150671.16;5449062;26;20232;-47
2024/04/08 08:24:52;;;;;;;15.88;13.25;;;;;;;36.97;23.94;150806.69;5449093;26;20563;-49
2024/04/08 08:27:20;;;;;;;18.02;14.32;;;;;;;36.94;22.33;150798.06;5449270;26;20614;-48
2024/04/08 08:29:52;;;;;;;15.27;13.75;;;;;;;37.38;22.77;150907.69;5449342;26;20212;-48
2024/04/08 08:32:22;;;;;;;16.95;13.85;;;;;;;37.36;22.40;150901.53;5449245;26;20224;-48
2024/04/08 08:34:48;;;;;;;15.02;13.50;;;;;;;37.92;22.05;151038.44;5449319;26;20252;-48
2024/04/08 08:37:16;;;;;;;14.98;13.68;;;;;;;38.28;21.74;151125.94;5449829;26;20262;-47
2024/04/08 08:39:42;;;;;;;15.40;13.80;;;;;;;38.31;22.06;151134.53;5449020;26;20698;-47
2024/04/08 08:42:10;;;;;;;14.65;13.32;;;;;;;38.38;21.50;151150.63;5449169;26;20259;-49
2024/04/08 08:44:43;;;;;;;15.30;13.88;;;;;;;38.58;21.00;151198.72;5448842;26;20212;-49
2024/04/08 08:47:11;;;;;;;15.40;14.00;;;;;;;37.24;22.67;150873.19;5448951;26;20258;-48
2024/04/08 08:49:40;;;;;;;14.88;13.32;;;;;;;36.37;21.72;150660.03;5449128;26;20284;-49
2024/04/08 08:52:10;;;;;;;16.15;14.48;;;;;;;36.69;21.17;150738.94;5448840;26;20220;-47
2024/04/08 08:54:36;;;;;;;14.43;12.85;;;;;;;37.26;21.04;150878.16;5448878;26;20536;-48
2024/04/08 08:57:04;;;;;;;16.02;14.43;;;;;;;38.18;21.71;151102.50;5448999;26;20563;-47
2024/04/08 08:59:31;;;;;;;18.05;13.98;;;;;;;37.47;20.67;150928.69;5448942;26;20761;-48
2024/04/08 09:02:00;;;;;;;15.48;13.93;;;;;;;37.52;21.05;150941.00;5448869;26;20220;-48
2024/04/08 09:04:26;;;;;;;15.30;13.68;;;;;;;37.95;20.35;151047.03;5448511;26;20247;-49
2024/04/08 09:06:57;;;;;;;14.40;13.10;;;;;;;37.87;20.28;151027.31;5448148;26;20293;-47
2024/04/08 09:09:22;;;;;;;17.05;13.45;;;;;;;37.68;21.06;150980.44;5448252;26;20290;-49
2024/04/08 09:11:51;;;;;;;14.57;13.18;;;;;;;38.05;21.97;151070.47;5448466;26;20231;-49
2024/04/08 09:14:16;;;;;;;16.52;13.90;;;;;;;37.05;20.14;150826.38;5448834;26;20889;-49
2024/04/08 09:16:48;;;;;;;15.85;14.13;;;;;;;37.51;20.51;150938.59;5448349;26;20254;-49
2024/04/08 09:19:14;;;;;;;20.02;14.30;;;;;;;36.69;20.94;150738.94;5447970;26;20567;-49
2024/04/08 09:21:41;;;;;;;15.80;14.32;;;;;;;36.12;21.05;150599.69;5448291;26;20231;-48
2024/04/08 09:24:10;;;;;;;16.33;14.65;;;;;;;36.04;20.73;150578.81;5448019;26;20571;-48
2024/04/08 09:26:39;;;;;;;15.27;13.75;;;;;;;35.63;22.08;150480.25;5448522;26;20262;-49
2024/04/08 09:29:04;;;;;;;19.23;14.05;;;;;;;35.22;22.16;150378.09;5447908;26;20316;-47
2024/04/08 09:31:32;;;;;;;14.88;13.68;;;;;;;36.02;22.30;150575.09;5448190;26;20728;-48
2024/04/08 09:33:58;;;;;;;15.18;13.70;;;;;;;36.94;20.58;150799.28;5447955;26;20538;-48
2024/04/08 09:36:27;;;;;;;15.98;13.57;;;;;;;37.17;20.44;150854.72;5448034;26;20258;-48
2024/04/08 09:38:55;;;;;;;16.10;14.38;;;;;;;37.56;21.48;150950.91;5447874;26;20734;-48
2024/04/08 09:41:27;;;;;;;20.00;14.00;;;;;;;37.47;21.59;150927.47;5447742;26;20220;-48
2024/04/08 09:43:55;;;;;;;16.02;13.88;;;;;;;37.79;19.74;151007.56;5448055;26;20215;-49
2024/04/08 09:46:23;;;;;;;15.25;13.98;;;;;;;38.02;20.32;151063.06;5447702;26;20317;-48
2024/04/08 09:48:55;;;;;;;15.10;13.70;;;;;;;37.73;20.33;150992.81;5447789;26;20216;-48
2024/04/08 09:51:21;;;;;;;15.00;13.43;;;;;;;38.60;20.30;151203.63;5447518;26;20699;-49
2024/04/08 09:53:49;;;;;;;15.30;13.88;;;;;;;38.89;20.52;151275.19;5447768;26;20298;-47
2024/04/08 09:56:16;;;;;;;17.17;14.43;;;;;;;38.20;19.30;151106.22;5447765;26;20238;-48
2024/04/08 09:58:55;;;;;;;15.50;13.77;;;;;;;37.12;19.98;150843.66;5447661;26;20259;-48
2024/04/08 10:01:21;;;;;;;18.67;13.40;;;;;;;37.30;20.79;150886.75;5447942;26;20254;-48
2024/04/08 10:03:51;;;;;;;18.25;13.82;;;;;;;36.37;21.46;150660.03;5447867;26;20258;-47
2024/04/08 10:06:17;;;;;;;14.55;13.48;;;;;;;35.63;22.58;150479.06;5447768;26;20246;-49
2024/04/08 10:08:47;;;;;;;15.80;13.80;;;;;;;33.96;23.11;150072.84;5447490;26;20260;-48
2024/04/08 10:11:13;;;;;;;17.85;13.98;;;;;;;33.20;22.60;149885.91;5447529;26;20263;-48
2024/04/08 10:13:49;;;;;;;15.70;14.15;;;;;;;33.45;23.79;149946.13;5447583;26;20220;-47
2024/04/08 10:16:16;;;;;;;14.48;13.20;;;;;;;33.75;23.34;150021.19;5447915;26;20216;-48
2024/04/08 10:18:54;;;;;;;15.40;13.90;;;;;;;32.75;24.11;149777.75;5447317;26;20622;-48
2024/04/08 10:21:20;;;;;;;15.25;14.02;;;;;;;33.10;24.01;149861.34;5447395;26;20228;-47
2024/04/08 10:23:49;;;;;;;15.57;14.25;;;;;;;32.91;24.93;149815.81;5447574;26;20324;-47
2024/04/08 10:26:15;;;;;;;15.00;13.57;;;;;;;31.79;25.54;149542.97;5447503;26;20208;-49
2024/04/08 10:28:43;;;;;;;14.70;13.57;;;;;;;32.37;25.37;149684.31;5447329;26;20250;-47
2024/04/08 10:31:12;;;;;;;15.23;13.77;;;;;;;32.22;26.38;149647.44;5446012;26;20216;-48
2024/04/08 10:33:40;;;;;;;18.48;13.80;;;;;;;30.92;25.71;149330.53;5447194;26;20220;-46
2024/04/08 10:36:07;;;;;;;18.70;13.60;;;;;;;31.37;24.67;149439.75;5447369;26;20677;-47
2024/04/08 10:38:35;;;;;;;13.82;12.48;;;;;;;31.67;25.16;149513.50;5447301;26;20649;-48
2024/04/08 10:41:05;;;;;;;14.77;13.32;;;;;;;31.53;24.37;149479.13;5447282;26;20254;-48
2024/04/08 10:43:33;;;;;;;15.05;13.57;;;;;;;31.71;24.42;149523.34;5447382;26;20208;-48
2024/04/08 10:45:59;;;;;;;14.52;13.20;;;;;;;31.83;23.71;149551.59;5447167;26;20215;-47
2024/04/08 10:48:29;;;;;;;14.70;13.60;;;;;;;31.84;23.57;149555.25;5446878;26;20279;-48
2024/04/08 10:50:55;;;;;;;15.38;13.80;;;;;;;31.91;23.41;149572.47;5447155;26;20216;-48
2024/04/08 10:53:23;;;;;;;15.52;14.05;;;;;;;31.54;23.36;149481.56;5446911;26;21218;-48
2024/04/08 10:55:48;;;;;;;16.30;13.70;;;;;;;31.21;22.69;149400.47;5446955;26;20761;-48
2024/04/08 10:58:17;;;;;;;15.35;13.95;;;;;;;30.60;22.05;149253.16;5447115;26;20274;-47
2024/04/08 11:00:44;;;;;;;15.77;14.40;;;;;;;30.68;23.61;149272.78;5446903;26;20540;-47
2024/04/08 11:03:13;;;;;;;15.40;14.13;;;;;;;30.63;22.24;149260.47;5446508;26;20263;-48
2024/04/08 11:05:41;;;;;;;15.75;14.40;;;;;;;30.72;24.03;149281.34;5446652;26;20215;-48
2024/04/08 11:08:12;;;;;;;15.10;13.77;;;;;;;30.62;21.92;149258.06;5446753;26;20219;-48
2024/04/08 11:10:37;;;;;;;14.77;13.50;;;;;;;30.40;23.41;149205.28;5446722;26;20274;-48
2024/04/08 11:13:09;;;;;;;15.63;14.18;;;;;;;30.00;25.17;149105.84;5446559;26;20590;-47